createdAt,value
2022-12-08T00:01:57.060Z,2.88
2022-12-08T00:04:27.285Z,2.89
2022-12-08T00:07:15.130Z,2.86
2022-12-08T00:09:43.791Z,2.87
2022-12-08T00:12:17.741Z,2.86
2022-12-08T00:14:48.336Z,2.83
2022-12-08T00:17:17.810Z,2.80
2022-12-08T00:19:46.391Z,2.77
2022-12-08T00:22:15.861Z,2.78
2022-12-08T00:24:46.860Z,2.81
2022-12-08T00:27:18.580Z,2.77
2022-12-08T00:29:47.618Z,2.75
2022-12-08T00:32:16.308Z,2.79
2022-12-08T00:34:45.288Z,2.82
2022-12-08T00:37:14.501Z,2.88
2022-12-08T00:39:43.178Z,2.93
2022-12-08T00:42:15.235Z,2.90
2022-12-08T00:44:46.354Z,2.81
2022-12-08T00:47:17.752Z,2.73
2022-12-08T00:49:50.150Z,2.73
2022-12-08T00:52:18.946Z,2.77
2022-12-08T00:54:47.584Z,2.74
2022-12-08T00:57:16.433Z,2.74
2022-12-08T00:59:45.373Z,2.81
2022-12-08T01:02:14.157Z,2.83
2022-12-08T01:04:43.300Z,2.77
2022-12-08T01:07:12.060Z,2.68
2022-12-08T01:09:41.250Z,2.70
2022-12-08T01:12:10.507Z,2.76
2022-12-08T01:14:39.538Z,2.79
2022-12-08T01:17:08.804Z,2.79
2022-12-08T01:19:37.743Z,2.77
2022-12-08T01:22:06.631Z,2.71
2022-12-08T01:24:35.467Z,2.68
2022-12-08T01:27:04.327Z,2.71
2022-12-08T01:29:33.292Z,2.73
2022-12-08T01:32:02.394Z,2.74
2022-12-08T01:34:31.388Z,2.74
2022-12-08T01:37:00.222Z,2.76
2022-12-08T01:39:28.993Z,2.79
2022-12-08T01:41:58.187Z,2.75
2022-12-08T01:44:26.896Z,2.68
2022-12-08T01:46:55.982Z,2.68
2022-12-08T01:49:34.202Z,2.70
2022-12-08T01:52:05.906Z,2.71
2022-12-08T01:54:39.820Z,2.75
2022-12-08T01:57:29.980Z,2.81
2022-12-08T02:00:09.345Z,2.85
2022-12-08T02:02:52.679Z,2.88
2022-12-08T02:05:25.046Z,2.93
2022-12-08T02:07:57.242Z,2.95
2022-12-08T02:10:30.946Z,2.91
2022-12-08T02:13:01.388Z,2.83
2022-12-08T02:16:06.022Z,2.74
2022-12-08T02:19:29.783Z,2.63
2022-12-08T02:22:26.069Z,2.55
2022-12-08T02:25:22.190Z,2.55
2022-12-08T02:28:17.433Z,2.49
2022-12-08T02:31:12.860Z,2.45
2022-12-08T02:34:00.688Z,2.44
2022-12-08T02:36:41.547Z,2.46
2022-12-08T02:39:15.749Z,2.48
2022-12-08T02:42:06.544Z,2.44
2022-12-08T02:44:48.469Z,2.44
2022-12-08T02:47:23.703Z,2.43
2022-12-08T02:49:52.859Z,2.44
2022-12-08T02:52:21.561Z,2.47
2022-12-08T02:55:15.487Z,2.53
2022-12-08T02:57:44.484Z,2.59
2022-12-08T03:00:17.263Z,2.63
2022-12-08T03:02:59.741Z,2.68
2022-12-08T03:05:54.461Z,2.78
2022-12-08T03:08:46.476Z,2.73
2022-12-08T03:11:22.425Z,2.61
2022-12-08T03:14:00.571Z,2.58
2022-12-08T03:16:31.887Z,2.53
2022-12-08T03:19:18.225Z,2.50
2022-12-08T03:22:03.583Z,2.55
2022-12-08T03:24:37.347Z,2.61
2022-12-08T03:27:10.699Z,2.68
2022-12-08T03:29:39.775Z,2.77
2022-12-08T03:32:20.983Z,2.84
2022-12-08T03:34:51.920Z,2.89
2022-12-08T03:37:21.305Z,2.91
2022-12-08T03:39:50.258Z,2.93
2022-12-08T03:42:20.233Z,2.94
2022-12-08T03:44:49.755Z,2.95
2022-12-08T03:47:18.720Z,2.95
2022-12-08T03:49:47.428Z,2.96
2022-12-08T03:52:16.290Z,2.97
2022-12-08T03:54:47.761Z,2.97
2022-12-08T03:57:16.610Z,2.99
2022-12-08T03:59:45.699Z,3.04
2022-12-08T04:02:14.682Z,3.08
2022-12-08T04:04:43.462Z,3.12
2022-12-08T04:07:12.679Z,3.18
2022-12-08T04:09:42.091Z,3.20
2022-12-08T04:12:11.208Z,3.20
2022-12-08T04:14:40.171Z,3.18
2022-12-08T04:17:09.082Z,3.18
2022-12-08T04:19:37.997Z,3.14
2022-12-08T04:22:07.821Z,3.04
2022-12-08T04:24:36.438Z,2.95
2022-12-08T04:27:05.132Z,2.87
2022-12-08T04:29:34.287Z,2.81
2022-12-08T04:32:03.025Z,2.78
2022-12-08T04:34:31.959Z,2.77
2022-12-08T04:37:01.367Z,2.75
2022-12-08T04:39:30.105Z,2.76
2022-12-08T04:42:20.460Z,2.77
2022-12-08T04:44:52.478Z,2.81
2022-12-08T04:47:22.962Z,2.86
2022-12-08T04:49:51.374Z,2.90
2022-12-08T04:52:19.968Z,2.90
2022-12-08T04:54:49.514Z,2.85
2022-12-08T04:57:18.062Z,2.77
2022-12-08T04:59:46.571Z,2.70
2022-12-08T05:02:15.638Z,2.65
2022-12-08T05:04:44.276Z,2.66
2022-12-08T05:07:12.886Z,2.70
2022-12-08T05:09:42.240Z,2.76
2022-12-08T05:12:11.002Z,2.79
2022-12-08T05:14:39.571Z,2.77
2022-12-08T05:17:09.907Z,2.80
2022-12-08T05:19:38.379Z,2.85
2022-12-08T05:22:06.968Z,2.86
2022-12-08T05:24:36.590Z,2.86
2022-12-08T05:27:05.241Z,2.85
2022-12-08T05:29:33.828Z,2.83
2022-12-08T05:32:03.139Z,2.78
2022-12-08T05:34:31.884Z,2.74
2022-12-08T05:37:00.390Z,2.77
2022-12-08T05:39:29.882Z,2.81
2022-12-08T05:41:59.606Z,2.86
2022-12-08T05:44:28.272Z,2.92
2022-12-08T05:46:57.786Z,2.96
2022-12-08T05:49:26.510Z,3.01
2022-12-08T05:51:55.079Z,3.04
2022-12-08T05:54:24.578Z,3.02
2022-12-08T05:56:53.136Z,2.97
2022-12-08T05:59:21.850Z,2.94
2022-12-08T06:01:51.619Z,2.93
2022-12-08T06:04:20.719Z,2.92
2022-12-08T06:06:50.336Z,2.93
2022-12-08T06:09:19.895Z,2.93
2022-12-08T06:11:48.981Z,2.94
2022-12-08T06:14:17.908Z,2.96
2022-12-08T06:16:55.085Z,2.96
2022-12-08T06:19:23.811Z,2.97
2022-12-08T06:21:52.679Z,2.97
2022-12-08T06:24:21.715Z,2.96
2022-12-08T06:26:50.554Z,2.97
2022-12-08T06:29:19.294Z,2.96
2022-12-08T06:31:48.239Z,2.97
2022-12-08T06:34:18.614Z,2.98
2022-12-08T06:36:47.564Z,2.97
2022-12-08T06:39:16.593Z,2.96
2022-12-08T06:42:04.026Z,2.97
2022-12-08T06:44:33.281Z,2.99
2022-12-08T06:47:02.200Z,3.01
2022-12-08T06:49:30.769Z,3.03
2022-12-08T06:52:03.409Z,3.07
2022-12-08T06:54:32.056Z,3.10
2022-12-08T06:57:01.003Z,3.13
2022-12-08T06:59:30.055Z,3.14
2022-12-08T07:01:58.730Z,3.14
2022-12-08T07:04:27.932Z,3.14
2022-12-08T07:06:57.285Z,3.14
2022-12-08T07:09:25.940Z,3.15
2022-12-08T07:11:54.749Z,3.17
2022-12-08T07:14:25.582Z,3.20
2022-12-08T07:16:54.217Z,3.24
2022-12-08T07:19:23.315Z,3.25
2022-12-08T07:21:52.543Z,3.26
2022-12-08T07:24:22.049Z,3.26
2022-12-08T07:26:50.958Z,3.28
2022-12-08T07:29:25.972Z,3.28
2022-12-08T07:31:55.857Z,3.28
2022-12-08T07:34:24.983Z,3.29
2022-12-08T07:36:53.543Z,3.32
2022-12-08T07:39:22.666Z,3.36
2022-12-08T07:41:51.678Z,3.40
2022-12-08T07:44:20.248Z,3.44
2022-12-08T07:46:49.471Z,3.47
2022-12-08T07:49:18.630Z,3.51
2022-12-08T07:51:47.177Z,3.52
2022-12-08T07:54:16.281Z,3.55
2022-12-08T07:56:46.350Z,3.55
2022-12-08T07:59:15.075Z,3.57
2022-12-08T08:01:45.504Z,3.58
2022-12-08T08:04:15.015Z,3.61
2022-12-08T08:06:43.856Z,3.64
2022-12-08T08:09:12.785Z,3.69
2022-12-08T08:11:41.931Z,3.72
2022-12-08T08:14:10.689Z,3.77
2022-12-08T08:16:42.437Z,3.80
2022-12-08T08:19:11.910Z,3.83
2022-12-08T08:21:45.863Z,3.86
2022-12-08T08:24:15.508Z,3.88
2022-12-08T08:26:44.314Z,3.92
2022-12-08T08:29:13.236Z,3.97
2022-12-08T08:31:42.731Z,4.06
2022-12-08T08:34:11.428Z,4.16
2022-12-08T08:36:40.175Z,4.26
2022-12-08T08:39:09.519Z,4.37
2022-12-08T08:41:38.570Z,4.46
2022-12-08T08:44:07.218Z,4.52
2022-12-08T08:46:36.217Z,4.56
2022-12-08T08:49:05.095Z,4.57
2022-12-08T08:51:35.702Z,4.57
2022-12-08T08:54:12.233Z,4.59
2022-12-08T08:56:56.210Z,4.61
2022-12-08T08:59:31.260Z,4.65
2022-12-08T09:02:05.558Z,4.74
2022-12-08T09:04:36.060Z,4.78
2022-12-08T09:07:15.049Z,4.79
2022-12-08T09:09:45.913Z,4.77
2022-12-08T09:12:19.554Z,4.77
2022-12-08T09:14:50.751Z,4.76
2022-12-08T09:17:19.443Z,4.74
2022-12-08T09:19:48.004Z,4.72
2022-12-08T09:22:17.065Z,4.67
2022-12-08T09:24:45.972Z,4.64
2022-12-08T09:27:14.609Z,4.61
2022-12-08T09:29:43.415Z,4.60
2022-12-08T09:32:12.135Z,4.62
2022-12-08T09:34:40.706Z,4.66
2022-12-08T09:37:10.204Z,4.71
2022-12-08T09:39:38.966Z,4.75
2022-12-08T09:42:08.033Z,4.77
2022-12-08T09:45:00.328Z,4.78
2022-12-08T09:47:36.218Z,4.77
2022-12-08T09:50:29.510Z,4.76
2022-12-08T09:53:35.663Z,4.78
2022-12-08T09:56:14.938Z,4.79
2022-12-08T09:58:53.978Z,4.81
2022-12-08T10:01:27.493Z,4.88
2022-12-08T10:03:56.535Z,4.98
2022-12-08T10:06:40.016Z,5.09
2022-12-08T10:09:22.895Z,5.18
2022-12-08T10:12:20.877Z,5.29
2022-12-08T10:15:11.788Z,5.39
2022-12-08T10:17:52.724Z,5.43
2022-12-08T10:20:25.745Z,5.42
2022-12-08T10:23:37.758Z,5.38
2022-12-08T10:26:14.589Z,5.34
2022-12-08T10:28:45.334Z,5.32
2022-12-08T10:31:20.329Z,5.29
2022-12-08T10:33:57.921Z,5.28
2022-12-08T10:36:46.143Z,5.30
2022-12-08T10:39:35.388Z,5.32
2022-12-08T10:42:14.885Z,5.30
2022-12-08T10:44:52.992Z,5.30
2022-12-08T10:47:24.588Z,5.31
2022-12-08T10:50:21.273Z,5.33
2022-12-08T10:53:02.765Z,5.30
2022-12-08T10:55:41.664Z,5.30
2022-12-08T10:58:27.080Z,5.32
2022-12-08T11:01:00.975Z,5.33
2022-12-08T11:03:33.458Z,5.36
2022-12-08T11:06:11.073Z,5.39
2022-12-08T11:09:02.154Z,5.41
2022-12-08T11:11:46.350Z,5.42
2022-12-08T11:14:27.690Z,5.47
2022-12-08T11:17:09.022Z,5.57
2022-12-08T11:19:43.492Z,5.63
2022-12-08T11:22:33.364Z,5.66
2022-12-08T11:25:19.661Z,5.70
2022-12-08T11:27:51.243Z,5.72
2022-12-08T11:30:25.367Z,5.72
2022-12-08T11:33:06.833Z,5.72
2022-12-08T11:35:39.299Z,5.72
2022-12-08T11:38:24.218Z,5.67
2022-12-08T11:41:14.206Z,5.64
2022-12-08T11:44:06.015Z,5.59
2022-12-08T11:46:51.465Z,5.58
2022-12-08T11:49:21.943Z,5.60
2022-12-08T11:52:14.946Z,5.61
2022-12-08T11:54:48.365Z,5.67
2022-12-08T11:57:21.017Z,5.72
2022-12-08T11:59:52.647Z,5.76
2022-12-08T12:02:27.597Z,5.79
2022-12-08T12:06:05.484Z,5.82
2022-12-08T12:08:49.114Z,5.86
2022-12-08T12:12:01.517Z,5.88
2022-12-08T12:14:55.506Z,5.91
2022-12-08T12:17:53.948Z,5.89
2022-12-08T12:21:02.105Z,5.87
2022-12-08T12:24:00.883Z,5.85
2022-12-08T12:26:54.486Z,5.85
2022-12-08T12:29:26.481Z,5.84
2022-12-08T12:32:04.013Z,5.82
2022-12-08T12:34:36.642Z,5.78
2022-12-08T12:37:15.324Z,5.77
2022-12-08T12:39:55.548Z,5.77
2022-12-08T12:42:44.614Z,5.76
2022-12-08T12:45:23.125Z,5.76
2022-12-08T12:47:57.326Z,5.78
2022-12-08T12:50:35.453Z,5.77
2022-12-08T12:53:48.289Z,5.74
2022-12-08T12:56:50.794Z,5.69
2022-12-08T12:59:29.760Z,5.61
2022-12-08T13:01:59.008Z,5.55
2022-12-08T13:04:37.770Z,5.54
2022-12-08T13:07:07.456Z,5.52
2022-12-08T13:09:40.150Z,5.52
2022-12-08T13:12:20.380Z,5.54
2022-12-08T13:14:58.869Z,5.54
2022-12-08T13:17:34.175Z,5.53
2022-12-08T13:20:07.608Z,5.54
2022-12-08T13:23:08.953Z,5.54
2022-12-08T13:25:40.870Z,5.54
2022-12-08T13:28:26.591Z,5.51
2022-12-08T13:31:02.542Z,5.47
2022-12-08T13:33:34.245Z,5.41
2022-12-08T13:36:17.516Z,5.35
2022-12-08T13:38:48.216Z,5.30
2022-12-08T13:41:23.179Z,5.25
2022-12-08T13:48:13.619Z,5.13
2022-12-08T13:56:59.658Z,5.03
2022-12-08T13:58:47.710Z,4.92
2022-12-08T14:01:22.630Z,4.88
2022-12-08T14:06:53.531Z,4.87
2022-12-08T14:09:29.599Z,4.87
2022-12-08T14:12:03.768Z,4.87
2022-12-08T14:15:02.599Z,4.83
2022-12-08T14:17:35.011Z,4.75
2022-12-08T14:20:06.970Z,4.67
2022-12-08T14:22:39.436Z,4.61
2022-12-08T14:25:16.567Z,4.51
2022-12-08T14:27:46.711Z,4.43
2022-12-08T14:30:26.467Z,4.40
2022-12-08T14:32:59.185Z,4.42
2022-12-08T14:35:37.140Z,4.42
2022-12-08T14:38:17.745Z,4.40
2022-12-08T14:41:01.799Z,4.43
2022-12-08T14:43:31.935Z,4.45
2022-12-08T14:46:19.313Z,4.44
2022-12-08T14:48:48.048Z,4.42
2022-12-08T14:51:19.930Z,4.41
2022-12-08T14:54:00.301Z,4.38
2022-12-08T14:56:40.184Z,4.36
2022-12-08T14:59:12.434Z,4.31
2022-12-08T15:01:43.387Z,4.28
2022-12-08T15:04:17.884Z,4.23
2022-12-08T15:06:54.113Z,4.20
2022-12-08T15:09:33.609Z,4.20
2022-12-08T15:12:05.275Z,4.18
2022-12-08T15:14:37.465Z,4.05
2022-12-08T15:17:49.882Z,3.88
2022-12-08T15:20:35.861Z,3.66
2022-12-08T15:25:51.519Z,3.46
2022-12-08T15:28:29.463Z,3.39
2022-12-08T15:30:59.390Z,3.36
2022-12-08T15:33:28.431Z,3.37
2022-12-08T15:35:57.144Z,3.40
2022-12-08T15:38:29.184Z,3.46
2022-12-08T15:41:01.269Z,3.51
2022-12-08T15:43:32.344Z,3.51
2022-12-08T15:46:01.275Z,3.52
2022-12-08T15:48:31.049Z,3.55
2022-12-08T15:50:59.987Z,3.57
2022-12-08T15:53:29.061Z,3.56
2022-12-08T15:58:57.570Z,3.44
2022-12-08T16:01:27.224Z,3.38
2022-12-08T16:09:42.226Z,3.11
2022-12-08T16:13:26.869Z,3.05
2022-12-08T16:18:17.616Z,2.98
2022-12-08T16:23:42.932Z,2.95
2022-12-08T16:27:21.958Z,2.91
2022-12-08T16:29:17.665Z,2.88
2022-12-08T16:31:46.371Z,2.90
2022-12-08T16:34:15.561Z,2.91
2022-12-08T16:36:44.429Z,2.91
2022-12-08T16:39:14.176Z,2.87
2022-12-08T16:42:01.814Z,2.85
2022-12-08T16:44:30.558Z,2.81
2022-12-08T16:46:59.347Z,2.78
2022-12-08T16:49:28.278Z,2.72
2022-12-08T16:51:56.833Z,2.71
2022-12-08T16:54:25.842Z,2.71
2022-12-08T16:56:54.489Z,2.70
2022-12-08T16:59:23.819Z,2.69
2022-12-08T17:01:52.709Z,2.70
2022-12-08T17:04:31.352Z,2.71
2022-12-08T17:07:01.287Z,2.78
2022-12-08T17:09:31.996Z,2.81
2022-12-08T17:12:03.959Z,2.87
2022-12-08T17:14:35.829Z,2.92
2022-12-08T17:17:04.676Z,2.93
2022-12-08T17:19:34.193Z,2.92
2022-12-08T17:22:03.481Z,2.85
2022-12-08T17:24:32.483Z,2.78
2022-12-08T17:27:04.557Z,2.73
2022-12-08T17:29:35.367Z,2.70
2022-12-08T17:32:04.401Z,2.65
2022-12-08T17:34:33.112Z,2.62
2022-12-08T17:37:02.170Z,2.64
2022-12-08T17:39:30.927Z,2.64
2022-12-08T17:42:01.651Z,2.64
2022-12-08T17:44:31.526Z,2.67
2022-12-08T17:47:01.455Z,2.67
2022-12-08T17:49:30.908Z,2.66
2022-12-08T17:52:02.666Z,2.65
2022-12-08T17:54:31.494Z,2.65
2022-12-08T17:57:00.413Z,2.60
2022-12-08T17:59:30.020Z,2.55
2022-12-08T18:02:00.123Z,2.52
2022-12-08T18:04:35.737Z,2.53
2022-12-08T18:07:13.940Z,2.58
2022-12-08T18:09:54.136Z,2.62
2022-12-08T18:12:32.446Z,2.62
2022-12-08T18:15:13.405Z,2.65
2022-12-08T18:17:54.479Z,2.62
2022-12-08T18:20:35.056Z,2.54
2022-12-08T18:23:12.868Z,2.41
2022-12-08T18:25:54.870Z,2.35
2022-12-08T18:28:32.538Z,2.30
2022-12-08T18:31:25.918Z,2.25
2022-12-08T18:34:04.465Z,2.26
2022-12-08T18:36:45.918Z,2.29
2022-12-08T18:39:34.186Z,2.34
2022-12-08T18:42:32.141Z,2.33
2022-12-08T18:45:22.121Z,2.35
2022-12-08T18:48:02.247Z,2.34
2022-12-08T18:50:39.708Z,2.22
2022-12-08T18:53:19.626Z,2.11
2022-12-08T18:55:59.783Z,2.04
2022-12-08T18:58:37.198Z,1.97
2022-12-08T19:01:18.436Z,1.95
2022-12-08T19:04:26.871Z,1.97
2022-12-08T19:06:57.843Z,2.01
2022-12-08T19:09:39.277Z,2.02
2022-12-08T19:12:25.299Z,2.08
2022-12-08T19:15:04.414Z,2.12
2022-12-08T19:17:42.176Z,2.13
2022-12-08T19:20:22.848Z,2.14
2022-12-08T19:23:05.000Z,2.18
2022-12-08T19:25:42.388Z,2.21
2022-12-08T19:28:20.006Z,2.25
2022-12-08T19:30:58.936Z,2.24
2022-12-08T19:33:40.526Z,2.21
2022-12-08T19:36:22.259Z,2.20
2022-12-08T19:39:20.245Z,2.24
2022-12-08T19:42:14.147Z,2.31
2022-12-08T19:44:55.360Z,2.40
2022-12-08T19:47:35.981Z,2.46
2022-12-08T19:50:39.542Z,2.50
2022-12-08T19:53:21.443Z,2.52
2022-12-08T19:56:03.706Z,2.53
2022-12-08T19:58:44.258Z,2.52
2022-12-08T20:01:22.468Z,2.45
2022-12-08T20:04:06.571Z,2.40
2022-12-08T20:06:43.552Z,2.37
2022-12-08T20:09:29.960Z,2.35
2022-12-08T20:12:20.432Z,2.35
2022-12-08T20:15:10.791Z,2.37
2022-12-08T20:17:53.613Z,2.38
2022-12-08T20:20:33.920Z,2.37
2022-12-08T20:23:15.197Z,2.24
2022-12-08T20:25:59.621Z,2.14
2022-12-08T20:28:39.080Z,2.11
2022-12-08T20:31:34.413Z,2.08
2022-12-08T20:34:21.249Z,2.02
2022-12-08T20:37:01.677Z,2.01
2022-12-08T20:39:43.858Z,2.01
2022-12-08T20:42:26.154Z,1.99
2022-12-08T20:45:11.803Z,1.99
2022-12-08T20:47:50.402Z,2.03
2022-12-08T20:50:37.304Z,2.05
2022-12-08T20:53:18.435Z,2.07
2022-12-08T20:56:01.393Z,2.12
2022-12-08T20:58:45.128Z,2.08
2022-12-08T21:01:32.283Z,1.95
2022-12-08T21:04:18.918Z,1.88
2022-12-08T21:07:05.551Z,1.84
2022-12-08T21:09:50.620Z,1.83
2022-12-08T21:12:35.803Z,1.80
2022-12-08T21:15:21.360Z,1.80
2022-12-08T21:17:59.041Z,1.85
2022-12-08T21:20:39.380Z,1.92
2022-12-08T21:23:17.208Z,2.00
2022-12-08T21:25:55.322Z,2.11
2022-12-08T21:28:45.939Z,2.18
2022-12-08T21:31:30.190Z,2.23
2022-12-08T21:34:11.158Z,2.23
2022-12-08T21:36:54.791Z,2.18
2022-12-08T21:39:35.928Z,2.16
2022-12-08T21:42:38.672Z,2.16
2022-12-08T21:45:23.909Z,2.13
2022-12-08T21:48:09.103Z,2.11
2022-12-08T21:50:52.070Z,2.11
2022-12-08T21:53:34.014Z,2.11
2022-12-08T21:56:15.531Z,2.12
2022-12-08T21:58:54.966Z,2.15
2022-12-08T22:01:37.866Z,2.13
2022-12-08T22:04:20.788Z,2.11
2022-12-08T22:07:00.701Z,2.09
2022-12-08T22:09:41.652Z,2.06
2022-12-08T22:12:23.609Z,2.01
2022-12-08T22:15:04.500Z,1.98
2022-12-08T22:17:48.053Z,1.96
2022-12-08T22:20:29.779Z,1.94
2022-12-08T22:23:10.732Z,1.92
2022-12-08T22:25:52.215Z,1.89
2022-12-08T22:28:30.687Z,1.87
2022-12-08T22:31:19.024Z,1.81
2022-12-08T22:34:02.937Z,1.81
2022-12-08T22:36:46.039Z,1.85
2022-12-08T22:39:24.742Z,1.88
2022-12-08T22:42:03.365Z,1.85
2022-12-08T22:44:43.121Z,1.79
2022-12-08T22:47:24.576Z,1.73
2022-12-08T22:50:06.575Z,1.69
2022-12-08T22:52:46.813Z,1.61
2022-12-08T22:55:24.661Z,1.54
2022-12-08T22:58:01.807Z,1.53
2022-12-08T23:00:39.464Z,1.54
2022-12-08T23:03:20.743Z,1.56
2022-12-08T23:06:03.504Z,1.63
2022-12-08T23:08:43.882Z,1.68
2022-12-08T23:11:25.449Z,1.72
2022-12-08T23:14:06.739Z,1.72
2022-12-08T23:16:46.802Z,1.74
2022-12-08T23:19:26.319Z,1.76
2022-12-08T23:22:05.368Z,1.74
2022-12-08T23:24:44.207Z,1.73
2022-12-08T23:27:24.506Z,1.68
2022-12-08T23:30:05.474Z,1.66
2022-12-08T23:32:46.187Z,1.67
2022-12-08T23:35:24.548Z,1.69
2022-12-08T23:38:07.487Z,1.73
2022-12-08T23:40:54.527Z,1.77
2022-12-08T23:43:34.115Z,1.79
2022-12-08T23:46:15.105Z,1.80
2022-12-08T23:48:59.956Z,1.80
2022-12-08T23:51:40.171Z,1.77
2022-12-08T23:54:21.050Z,1.75
2022-12-08T23:57:02.530Z,1.75
2022-12-08T23:59:43.095Z,1.76
